createdAt,value
2023-01-05T00:02:24.148Z,14.19
2023-01-05T00:04:52.378Z,14.01
2023-01-05T00:07:20.626Z,14.43
2023-01-05T00:09:47.779Z,14.42
2023-01-05T00:12:33.854Z,14.32
2023-01-05T00:15:19.557Z,14.17
2023-01-05T00:18:05.781Z,14.39
2023-01-05T00:20:51.384Z,13.92
2023-01-05T00:23:18.877Z,13.92
2023-01-05T00:25:46.025Z,13.72
2023-01-05T00:28:13.165Z,13.89
2023-01-05T00:30:41.751Z,14.33
2023-01-05T00:33:09.667Z,14.34
2023-01-05T00:35:36.913Z,14.01
2023-01-05T00:38:04.576Z,14.08
2023-01-05T00:40:31.759Z,13.91
2023-01-05T00:42:58.983Z,13.04
2023-01-05T00:45:27.225Z,14.01
2023-01-05T00:47:55.166Z,13.84
2023-01-05T00:50:22.632Z,13.65
2023-01-05T00:52:50.338Z,14.05
2023-01-05T00:55:17.589Z,13.97
2023-01-05T00:57:45.414Z,13.82
2023-01-05T01:00:14.663Z,13.56
2023-01-05T01:02:41.826Z,13.72
2023-01-05T01:05:09.105Z,13.67
2023-01-05T01:07:36.896Z,13.01
2023-01-05T01:10:05.401Z,13.13
2023-01-05T01:12:32.536Z,12.56
2023-01-05T01:15:00.135Z,12.32
2023-01-05T01:17:27.278Z,12.76
2023-01-05T01:19:54.518Z,12.63
2023-01-05T01:22:21.934Z,12.98
2023-01-05T01:24:49.077Z,13.67
2023-01-05T01:27:16.269Z,13.77
2023-01-05T01:29:43.800Z,13.47
2023-01-05T01:32:11.003Z,13.14
2023-01-05T01:34:39.470Z,13.48
2023-01-05T01:37:06.950Z,13.77
2023-01-05T01:39:34.563Z,13.28
2023-01-05T01:42:02.036Z,13.56
2023-01-05T01:44:48.209Z,13.92
2023-01-05T01:47:19.431Z,13.60
2023-01-05T01:49:46.871Z,13.46
2023-01-05T01:52:14.212Z,14.27
2023-01-05T01:54:41.361Z,13.39
2023-01-05T01:57:09.911Z,13.45
2023-01-05T01:59:37.099Z,14.12
2023-01-05T02:02:04.745Z,14.12
2023-01-05T02:04:32.368Z,13.75
2023-01-05T02:06:59.665Z,13.59
2023-01-05T02:09:26.837Z,13.55
2023-01-05T02:12:09.244Z,13.92
2023-01-05T02:14:58.768Z,14.13
2023-01-05T02:17:45.444Z,14.14
2023-01-05T02:20:31.212Z,14.53
2023-01-05T02:23:06.170Z,13.81
2023-01-05T02:25:37.039Z,14.05
2023-01-05T02:28:07.321Z,14.48
2023-01-05T02:30:40.680Z,13.99
2023-01-05T02:33:20.029Z,14.84
2023-01-05T02:35:52.940Z,14.95
2023-01-05T02:38:26.287Z,15.15
2023-01-05T02:40:55.491Z,15.09
2023-01-05T02:43:23.185Z,15.08
2023-01-05T02:45:50.457Z,15.20
2023-01-05T02:48:18.075Z,15.15
2023-01-05T02:51:00.971Z,15.35
2023-01-05T02:53:30.796Z,14.60
2023-01-05T02:56:01.068Z,14.98
2023-01-05T02:58:34.261Z,15.21
2023-01-05T03:01:06.519Z,15.10
2023-01-05T03:03:35.674Z,14.62
2023-01-05T03:06:13.647Z,14.61
2023-01-05T03:08:44.762Z,14.92
2023-01-05T03:11:32.246Z,15.23
2023-01-05T03:14:01.602Z,15.16
2023-01-05T03:16:29.867Z,15.13
2023-01-05T03:19:16.529Z,15.20
2023-01-05T03:22:02.818Z,15.25
2023-01-05T03:24:49.933Z,14.92
2023-01-05T03:27:36.655Z,14.02
2023-01-05T03:30:22.994Z,14.35
2023-01-05T03:33:10.289Z,14.68
2023-01-05T03:35:41.807Z,14.30
2023-01-05T03:38:18.286Z,14.40
2023-01-05T03:40:46.155Z,15.01
2023-01-05T03:43:13.831Z,14.59
2023-01-05T03:46:01.374Z,14.25
2023-01-05T03:48:30.078Z,14.32
2023-01-05T03:50:57.313Z,14.17
2023-01-05T03:53:24.649Z,14.52
2023-01-05T03:55:52.106Z,14.15
2023-01-05T03:58:20.778Z,14.09
2023-01-05T04:00:48.261Z,14.55
2023-01-05T04:03:17.058Z,14.28
2023-01-05T04:05:44.355Z,14.62
2023-01-05T04:08:11.615Z,14.48
2023-01-05T04:10:39.067Z,14.41
2023-01-05T04:13:07.683Z,14.55
2023-01-05T04:15:34.999Z,14.49
2023-01-05T04:18:03.109Z,14.18
2023-01-05T04:20:30.271Z,13.78
2023-01-05T04:22:58.048Z,14.54
2023-01-05T04:25:25.827Z,14.43
2023-01-05T04:27:53.159Z,12.69
2023-01-05T04:30:21.615Z,13.73
2023-01-05T04:32:49.539Z,13.62
2023-01-05T04:35:16.758Z,14.60
2023-01-05T04:37:44.696Z,14.96
2023-01-05T04:40:13.288Z,15.09
2023-01-05T04:42:41.597Z,15.05
2023-01-05T04:45:09.020Z,15.05
2023-01-05T04:47:36.717Z,14.75
2023-01-05T04:50:04.784Z,13.91
2023-01-05T04:52:32.251Z,14.42
2023-01-05T04:54:59.743Z,13.92
2023-01-05T04:57:28.466Z,13.69
2023-01-05T04:59:55.683Z,14.03
2023-01-05T05:02:24.864Z,13.81
2023-01-05T05:04:52.537Z,13.43
2023-01-05T05:07:21.458Z,13.31
2023-01-05T05:09:48.963Z,13.54
2023-01-05T05:12:20.373Z,13.37
2023-01-05T05:14:49.952Z,13.23
2023-01-05T05:17:17.340Z,12.80
2023-01-05T05:19:44.848Z,12.99
2023-01-05T05:22:12.863Z,13.13
2023-01-05T05:24:40.085Z,12.79
2023-01-05T05:27:08.022Z,11.97
2023-01-05T05:29:35.510Z,11.54
2023-01-05T05:32:02.710Z,12.05
2023-01-05T05:34:29.961Z,11.57
2023-01-05T05:36:57.405Z,11.73
2023-01-05T05:39:24.552Z,11.90
2023-01-05T05:41:51.717Z,12.28
2023-01-05T05:44:19.179Z,11.29
2023-01-05T05:46:46.465Z,11.47
2023-01-05T05:49:13.705Z,11.73
2023-01-05T05:51:41.214Z,11.45
2023-01-05T05:54:08.723Z,11.66
2023-01-05T05:56:35.920Z,11.72
2023-01-05T05:59:03.357Z,12.08
2023-01-05T06:01:30.668Z,12.60
2023-01-05T06:03:58.202Z,13.37
2023-01-05T06:06:25.407Z,13.05
2023-01-05T06:08:52.564Z,13.75
2023-01-05T06:11:19.996Z,12.93
2023-01-05T06:13:48.852Z,13.55
2023-01-05T06:16:16.149Z,13.35
2023-01-05T06:18:43.603Z,13.08
2023-01-05T06:21:10.770Z,13.88
2023-01-05T06:23:37.917Z,14.10
2023-01-05T06:26:05.498Z,13.59
2023-01-05T06:28:32.719Z,13.31
2023-01-05T06:30:59.857Z,13.74
2023-01-05T06:33:27.326Z,14.03
2023-01-05T06:35:54.576Z,13.82
2023-01-05T06:38:21.737Z,13.59
2023-01-05T06:40:49.656Z,13.94
2023-01-05T06:43:16.914Z,14.28
2023-01-05T06:45:44.254Z,14.39
2023-01-05T06:48:11.710Z,14.62
2023-01-05T06:50:38.904Z,14.63
2023-01-05T06:53:06.101Z,14.71
2023-01-05T06:55:33.546Z,14.55
2023-01-05T06:58:01.382Z,14.02
2023-01-05T07:00:29.014Z,14.18
2023-01-05T07:02:56.516Z,14.29
2023-01-05T07:05:24.675Z,14.32
2023-01-05T07:07:52.013Z,14.39
2023-01-05T07:10:19.501Z,14.34
2023-01-05T07:12:46.691Z,14.19
2023-01-05T07:15:13.833Z,14.38
2023-01-05T07:17:41.257Z,14.47
2023-01-05T07:20:08.678Z,14.59
2023-01-05T07:22:35.861Z,14.41
2023-01-05T07:25:03.375Z,14.15
2023-01-05T07:27:30.609Z,14.57
2023-01-05T07:29:57.765Z,14.65
2023-01-05T07:32:25.212Z,14.16
2023-01-05T07:34:55.737Z,14.27
2023-01-05T07:37:24.884Z,14.23
2023-01-05T07:39:54.075Z,14.14
2023-01-05T07:42:21.291Z,14.35
2023-01-05T07:44:48.621Z,14.57
2023-01-05T07:47:16.070Z,13.66
2023-01-05T07:49:43.240Z,13.72
2023-01-05T07:52:10.389Z,14.07
2023-01-05T07:54:37.798Z,13.93
2023-01-05T07:57:04.953Z,13.30
2023-01-05T07:59:32.130Z,13.22
2023-01-05T08:01:59.717Z,13.70
2023-01-05T08:04:27.897Z,13.38
2023-01-05T08:06:56.345Z,12.17
2023-01-05T08:09:42.003Z,13.69
2023-01-05T08:12:10.815Z,13.86
2023-01-05T08:14:38.702Z,13.33
2023-01-05T08:17:05.847Z,13.87
2023-01-05T08:19:33.262Z,14.27
2023-01-05T08:22:00.704Z,14.36
2023-01-05T08:24:27.839Z,14.39
2023-01-05T08:26:55.297Z,14.36
2023-01-05T08:29:22.490Z,14.42
2023-01-05T08:31:49.744Z,14.30
2023-01-05T08:34:17.238Z,13.72
2023-01-05T08:36:44.635Z,13.39
2023-01-05T08:39:11.906Z,12.92
2023-01-05T08:41:40.047Z,13.86
2023-01-05T08:44:08.516Z,13.80
2023-01-05T08:46:35.884Z,13.03
2023-01-05T08:49:04.502Z,13.04
2023-01-05T08:51:31.943Z,13.30
2023-01-05T08:53:59.096Z,13.11
2023-01-05T08:56:27.601Z,12.92
2023-01-05T08:58:59.036Z,12.60
2023-01-05T09:01:26.646Z,13.06
2023-01-05T09:03:53.917Z,13.51
2023-01-05T09:06:21.063Z,13.57
2023-01-05T09:08:48.743Z,13.48
2023-01-05T09:11:17.885Z,13.04
2023-01-05T09:13:45.888Z,13.41
2023-01-05T09:16:14.029Z,11.91
2023-01-05T09:18:41.567Z,12.41
2023-01-05T09:21:09.487Z,12.23
2023-01-05T09:23:37.173Z,12.43
2023-01-05T09:26:05.129Z,12.36
2023-01-05T09:28:32.342Z,12.47
2023-01-05T09:30:59.787Z,12.82
2023-01-05T09:33:26.962Z,12.65
2023-01-05T09:35:57.368Z,11.75
2023-01-05T09:38:24.972Z,12.00
2023-01-05T09:40:53.201Z,12.59
2023-01-05T09:43:33.456Z,13.20
2023-01-05T09:46:01.138Z,11.71
2023-01-05T09:48:29.838Z,11.43
2023-01-05T09:50:57.217Z,11.52
2023-01-05T09:53:27.800Z,12.02
2023-01-05T09:55:55.082Z,12.95
2023-01-05T09:58:29.675Z,12.82
2023-01-05T10:01:02.806Z,12.22
2023-01-05T10:04:02.405Z,12.56
2023-01-05T10:06:18.767Z,12.86
2023-01-05T10:08:47.217Z,12.90
2023-01-05T10:11:34.022Z,13.31
2023-01-05T10:14:09.651Z,14.14
2023-01-05T10:16:36.873Z,13.73
2023-01-05T10:19:04.345Z,13.85
2023-01-05T10:21:46.709Z,13.21
2023-01-05T10:24:22.468Z,13.31
2023-01-05T10:29:50.038Z,13.08
2023-01-05T10:32:22.937Z,14.50
2023-01-05T10:34:57.678Z,13.65
2023-01-05T10:37:31.310Z,13.57
2023-01-05T10:39:58.686Z,14.70
2023-01-05T10:42:45.604Z,13.80
2023-01-05T10:45:13.528Z,13.86
2023-01-05T10:47:41.150Z,13.07
2023-01-05T10:50:25.247Z,13.09
2023-01-05T10:52:53.260Z,13.85
2023-01-05T10:55:20.463Z,13.35
2023-01-05T10:57:47.631Z,13.98
2023-01-05T11:00:18.201Z,13.67
2023-01-05T11:02:51.551Z,12.38
2023-01-05T11:05:19.117Z,12.79
2023-01-05T11:07:56.466Z,13.74
2023-01-05T11:10:37.118Z,13.91
2023-01-05T11:13:04.255Z,14.20
2023-01-05T11:15:32.660Z,13.33
2023-01-05T11:17:59.939Z,13.85
2023-01-05T11:20:27.706Z,13.82
2023-01-05T11:22:55.174Z,12.68
2023-01-05T11:25:32.235Z,13.20
2023-01-05T11:28:18.630Z,13.32
2023-01-05T11:31:02.161Z,14.22
2023-01-05T11:33:30.020Z,14.08
2023-01-05T11:35:57.313Z,13.29
2023-01-05T11:38:25.813Z,13.23
2023-01-05T11:40:56.155Z,12.73
2023-01-05T11:43:23.753Z,12.48
2023-01-05T11:45:52.231Z,13.34
2023-01-05T11:48:20.941Z,13.03
2023-01-05T11:50:50.377Z,12.63
2023-01-05T11:53:32.859Z,12.77
2023-01-05T11:56:03.348Z,13.17
2023-01-05T11:58:33.370Z,14.01
2023-01-05T12:01:20.282Z,12.75
2023-01-05T12:04:01.660Z,12.72
2023-01-05T12:06:35.118Z,12.56
2023-01-05T12:09:22.082Z,12.35
2023-01-05T12:11:52.079Z,12.56
2023-01-05T12:14:36.503Z,12.86
2023-01-05T12:17:06.222Z,12.81
2023-01-05T12:19:42.439Z,13.20
2023-01-05T12:22:18.951Z,13.78
2023-01-05T12:24:48.981Z,13.32
2023-01-05T12:27:20.134Z,12.94
2023-01-05T12:35:53.704Z,12.56
2023-01-05T12:38:31.060Z,12.83
2023-01-05T12:41:07.585Z,12.45
2023-01-05T12:43:53.312Z,12.39
2023-01-05T12:46:26.681Z,12.96
2023-01-05T12:48:55.652Z,12.14
2023-01-05T12:51:36.355Z,12.13
2023-01-05T12:54:06.543Z,12.08
2023-01-05T12:56:38.589Z,13.02
2023-01-05T12:59:14.895Z,13.73
2023-01-05T13:01:55.139Z,13.00
2023-01-05T13:04:39.130Z,12.88
2023-01-05T13:07:32.768Z,13.15
2023-01-05T13:10:03.262Z,13.58
2023-01-05T13:12:31.717Z,13.08
2023-01-05T13:15:19.091Z,13.43
2023-01-05T13:17:47.827Z,13.28
2023-01-05T13:20:22.311Z,12.20
2023-01-05T13:22:49.797Z,13.14
2023-01-05T13:25:16.912Z,12.87
2023-01-05T13:27:44.080Z,12.59
2023-01-05T13:30:24.700Z,12.82
2023-01-05T13:33:05.491Z,12.30
2023-01-05T13:35:41.305Z,13.00
2023-01-05T13:38:27.191Z,12.67
2023-01-05T13:41:16.424Z,13.91
2023-01-05T13:43:47.331Z,13.12
2023-01-05T13:46:21.509Z,12.04
2023-01-05T13:49:03.243Z,12.33
2023-01-05T13:51:49.986Z,12.74
2023-01-05T13:54:33.053Z,13.35
2023-01-05T13:57:21.395Z,12.36
2023-01-05T14:00:04.715Z,12.87
2023-01-05T14:02:42.287Z,12.51
2023-01-05T14:05:17.224Z,12.91
2023-01-05T14:07:44.364Z,13.00
2023-01-05T14:10:22.561Z,13.03
2023-01-05T14:12:50.249Z,12.85
2023-01-05T14:15:37.741Z,12.78
2023-01-05T14:18:05.782Z,13.13
2023-01-05T14:20:49.436Z,13.49
2023-01-05T14:23:23.237Z,11.89
2023-01-05T14:26:00.808Z,12.65
2023-01-05T14:28:28.001Z,13.69
2023-01-05T14:31:26.047Z,13.56
2023-01-05T14:33:59.150Z,13.20
2023-01-05T14:36:50.208Z,13.34
2023-01-05T14:39:17.876Z,12.85
2023-01-05T14:41:46.644Z,12.73
2023-01-05T14:44:24.431Z,13.58
2023-01-05T14:46:52.578Z,12.48
2023-01-05T14:49:21.266Z,13.74
2023-01-05T14:51:52.322Z,12.82
2023-01-05T14:54:34.411Z,11.97
2023-01-05T14:57:20.601Z,12.60
2023-01-05T14:59:48.440Z,12.59
2023-01-05T15:02:18.856Z,12.20
2023-01-05T15:04:45.994Z,12.22
2023-01-05T15:07:13.410Z,12.25
2023-01-05T15:10:01.354Z,12.96
2023-01-05T15:12:38.163Z,12.86
2023-01-05T15:15:24.226Z,12.73
2023-01-05T15:17:53.642Z,12.30
2023-01-05T15:20:29.758Z,12.24
2023-01-05T15:23:06.368Z,11.79
2023-01-05T15:25:53.090Z,12.84
2023-01-05T15:28:39.531Z,12.57
2023-01-05T15:31:16.293Z,12.60
2023-01-05T15:33:50.921Z,13.12
2023-01-05T15:36:29.081Z,12.79
2023-01-05T15:38:57.670Z,13.10
2023-01-05T15:41:25.449Z,13.19
2023-01-05T15:43:52.912Z,12.28
2023-01-05T15:46:21.309Z,13.30
2023-01-05T15:48:50.859Z,12.39
2023-01-05T15:51:22.375Z,12.83
2023-01-05T15:53:54.916Z,12.46
2023-01-05T15:56:25.633Z,13.25
2023-01-05T15:58:53.104Z,12.59
2023-01-05T16:01:20.998Z,12.40
2023-01-05T16:03:48.788Z,12.53
2023-01-05T16:06:20.256Z,13.45
2023-01-05T16:08:48.497Z,12.95
2023-01-05T16:11:18.052Z,11.65
2023-01-05T16:13:48.290Z,12.93
2023-01-05T16:16:55.452Z,12.25
2023-01-05T16:19:17.307Z,12.56
2023-01-05T16:21:46.153Z,12.00
2023-01-05T16:24:15.909Z,12.01
2023-01-05T16:26:43.049Z,12.82
2023-01-05T16:29:20.973Z,13.17
2023-01-05T16:31:55.457Z,12.74
2023-01-05T16:34:31.611Z,12.89
2023-01-05T16:37:08.400Z,12.62
2023-01-05T16:39:37.195Z,12.87
2023-01-05T16:42:23.775Z,13.69
2023-01-05T16:44:52.099Z,13.57
2023-01-05T16:47:26.923Z,12.80
2023-01-05T16:49:58.255Z,13.74
2023-01-05T16:52:30.951Z,13.06
2023-01-05T16:55:27.855Z,13.02
2023-01-05T16:57:55.939Z,12.62
2023-01-05T17:00:26.153Z,12.99
2023-01-05T17:02:54.537Z,13.38
2023-01-05T17:05:22.836Z,12.92
2023-01-05T17:07:58.725Z,12.75
2023-01-05T17:10:26.426Z,13.14
2023-01-05T17:13:01.207Z,13.00
2023-01-05T17:15:29.719Z,13.31
2023-01-05T17:17:57.171Z,12.91
2023-01-05T17:20:25.023Z,13.16
2023-01-05T17:22:53.400Z,12.04
2023-01-05T17:25:20.844Z,12.71
2023-01-05T17:27:49.605Z,12.78
2023-01-05T17:30:20.780Z,12.53
2023-01-05T17:32:48.211Z,13.21
2023-01-05T17:35:18.463Z,12.63
2023-01-05T17:37:47.378Z,12.22
2023-01-05T17:40:17.035Z,12.79
2023-01-05T17:42:44.489Z,12.81
2023-01-05T17:45:16.658Z,12.59
2023-01-05T17:47:44.159Z,12.80
2023-01-05T17:50:13.683Z,12.44
2023-01-05T17:52:40.905Z,12.29
2023-01-05T17:55:08.443Z,12.09
2023-01-05T17:57:35.849Z,12.97
2023-01-05T18:00:07.819Z,12.67
2023-01-05T18:02:35.825Z,11.98
2023-01-05T18:05:03.644Z,12.09
2023-01-05T18:07:31.474Z,12.01
2023-01-05T18:09:59.609Z,11.31
2023-01-05T18:12:26.832Z,11.88
2023-01-05T18:14:54.316Z,12.01
2023-01-05T18:17:21.798Z,11.45
2023-01-05T18:19:49.111Z,11.82
2023-01-05T18:22:16.437Z,12.73
2023-01-05T18:24:44.379Z,11.83
2023-01-05T18:27:12.222Z,12.09
2023-01-05T18:29:40.921Z,11.92
2023-01-05T18:32:08.945Z,12.07
2023-01-05T18:34:36.452Z,11.33
2023-01-05T18:37:10.480Z,11.59
2023-01-05T18:39:38.840Z,12.21
2023-01-05T18:42:06.325Z,12.00
2023-01-05T18:44:33.693Z,11.77
2023-01-05T18:47:01.422Z,12.01
2023-01-05T18:49:28.679Z,12.16
2023-01-05T18:51:55.815Z,12.54
2023-01-05T18:54:23.627Z,11.72
2023-01-05T18:56:51.293Z,12.20
2023-01-05T18:59:18.690Z,12.11
2023-01-05T19:01:46.238Z,12.16
2023-01-05T19:04:15.109Z,12.20
2023-01-05T19:06:42.314Z,11.82
2023-01-05T19:09:10.376Z,11.80
2023-01-05T19:11:38.312Z,11.79
2023-01-05T19:14:06.103Z,11.33
2023-01-05T19:16:34.692Z,11.36
2023-01-05T19:19:05.159Z,12.13
2023-01-05T19:21:33.455Z,12.08
2023-01-05T19:24:01.353Z,11.86
2023-01-05T19:26:30.689Z,11.83
2023-01-05T19:29:02.486Z,12.38
2023-01-05T19:31:30.754Z,11.94
2023-01-05T19:33:59.463Z,11.87
2023-01-05T19:36:32.298Z,12.04
2023-01-05T19:39:00.901Z,12.35
2023-01-05T19:41:28.434Z,12.16
2023-01-05T19:43:56.257Z,12.13
2023-01-05T19:46:25.184Z,11.93
2023-01-05T19:48:52.784Z,10.94
2023-01-05T19:51:22.403Z,11.18
2023-01-05T19:54:01.110Z,11.62
2023-01-05T19:56:33.480Z,12.38
2023-01-05T19:59:02.669Z,11.47
2023-01-05T20:01:31.263Z,11.84
2023-01-05T20:03:59.197Z,12.01
2023-01-05T20:06:27.662Z,12.27
2023-01-05T20:08:56.641Z,12.27
2023-01-05T20:11:38.111Z,12.36
2023-01-05T20:14:09.159Z,11.43
2023-01-05T20:16:38.017Z,12.05
2023-01-05T20:19:05.381Z,12.28
2023-01-05T20:21:32.836Z,12.13
2023-01-05T20:24:01.872Z,11.98
2023-01-05T20:26:31.578Z,11.40
2023-01-05T20:29:02.136Z,11.50
2023-01-05T20:31:32.989Z,12.70
2023-01-05T20:34:03.346Z,11.69
2023-01-05T20:36:32.628Z,11.56
2023-01-05T20:39:00.485Z,12.14
2023-01-05T20:41:28.685Z,12.17
2023-01-05T20:43:56.849Z,11.09
2023-01-05T20:46:34.351Z,11.60
2023-01-05T20:49:01.918Z,12.10
2023-01-05T20:51:29.042Z,12.08
2023-01-05T20:53:57.231Z,12.69
2023-01-05T20:56:26.074Z,11.59
2023-01-05T20:58:53.845Z,11.71
2023-01-05T21:01:21.471Z,12.36
2023-01-05T21:03:50.521Z,11.90
2023-01-05T21:06:18.094Z,11.25
2023-01-05T21:08:48.894Z,11.38
2023-01-05T21:11:22.877Z,11.88
2023-01-05T21:13:50.352Z,12.09
2023-01-05T21:16:21.603Z,12.22
2023-01-05T21:18:49.079Z,11.18
2023-01-05T21:21:17.729Z,11.66
2023-01-05T21:23:48.032Z,11.83
2023-01-05T21:26:16.526Z,10.26
2023-01-05T21:28:44.129Z,11.12
2023-01-05T21:31:13.463Z,10.53
2023-01-05T21:33:40.985Z,11.52
2023-01-05T21:36:09.682Z,11.18
2023-01-05T21:39:02.124Z,10.41
2023-01-05T21:41:43.110Z,10.86
2023-01-05T21:44:11.232Z,11.19
2023-01-05T21:46:39.228Z,11.37
2023-01-05T21:49:06.978Z,12.58
2023-01-05T21:51:53.120Z,11.26
2023-01-05T21:54:39.114Z,11.36
2023-01-05T21:57:06.915Z,11.17
2023-01-05T21:59:34.204Z,11.37
2023-01-05T22:02:01.317Z,11.52
2023-01-05T22:04:28.754Z,10.88
2023-01-05T22:06:55.995Z,10.93
2023-01-05T22:09:23.118Z,10.94
2023-01-05T22:11:50.561Z,10.81
2023-01-05T22:14:17.800Z,11.61
2023-01-05T22:16:44.925Z,10.62
2023-01-05T22:19:12.381Z,10.76
2023-01-05T22:21:39.502Z,11.68
2023-01-05T22:24:06.925Z,11.40
2023-01-05T22:26:34.346Z,11.05
2023-01-05T22:29:01.509Z,11.02
2023-01-05T22:31:29.614Z,10.66
2023-01-05T22:33:57.937Z,11.33
2023-01-05T22:36:25.584Z,11.43
2023-01-05T22:38:52.996Z,11.23
2023-01-05T22:41:21.486Z,12.05
2023-01-05T22:43:48.892Z,11.07
2023-01-05T22:46:20.310Z,11.53
2023-01-05T22:48:48.920Z,11.98
2023-01-05T22:51:17.049Z,12.12
2023-01-05T22:53:44.401Z,12.13
2023-01-05T22:56:12.428Z,13.36
2023-01-05T22:58:39.683Z,13.20
2023-01-05T23:01:06.895Z,12.73
2023-01-05T23:03:34.347Z,13.43
2023-01-05T23:06:01.482Z,13.97
2023-01-05T23:08:31.982Z,14.44
2023-01-05T23:11:03.675Z,14.49
2023-01-05T23:13:30.875Z,14.55
2023-01-05T23:15:58.216Z,13.86
2023-01-05T23:18:25.641Z,13.94
2023-01-05T23:20:56.718Z,14.07
2023-01-05T23:23:24.120Z,14.32
2023-01-05T23:25:51.853Z,13.52
2023-01-05T23:28:19.478Z,13.79
2023-01-05T23:30:47.128Z,14.23
2023-01-05T23:33:15.019Z,14.14
2023-01-05T23:35:45.734Z,14.01
2023-01-05T23:38:14.431Z,14.49
2023-01-05T23:40:42.581Z,14.53
2023-01-05T23:43:14.100Z,14.68
2023-01-05T23:45:43.077Z,15.46
2023-01-05T23:48:13.727Z,15.16
2023-01-05T23:50:41.380Z,14.11
2023-01-05T23:53:08.801Z,14.45
2023-01-05T23:55:36.016Z,13.72
2023-01-05T23:58:03.363Z,14.59
